createdAt,value
2022-10-12T00:04:08.385Z,4.65
2022-10-12T00:09:12.047Z,3.97
2022-10-12T00:14:15.771Z,4.70
2022-10-12T00:19:20.883Z,4.22
2022-10-12T00:24:24.688Z,4.68
2022-10-12T00:29:28.692Z,4.65
2022-10-12T00:34:33.808Z,4.88
2022-10-12T00:39:37.873Z,4.20
2022-10-12T00:44:44.184Z,4.18
2022-10-12T00:49:53.771Z,4.73
2022-10-12T00:54:57.792Z,4.28
2022-10-12T01:00:04.761Z,4.68
2022-10-12T01:05:11.746Z,4.10
2022-10-12T01:10:15.608Z,4.07
2022-10-12T01:15:19.641Z,4.43
2022-10-12T01:20:50.914Z,3.90
2022-10-12T01:26:17.824Z,3.28
2022-10-12T01:36:41.561Z,2.75
2022-10-12T01:41:49.371Z,2.80
2022-10-12T01:46:56.436Z,3.65
2022-10-12T01:57:20.249Z,3.63
2022-10-12T02:02:32.573Z,2.95
2022-10-12T02:07:42.540Z,2.88
2022-10-12T02:12:47.784Z,3.05
2022-10-12T02:17:54.326Z,3.03
2022-10-12T02:22:58.208Z,2.92
2022-10-12T02:28:07.024Z,3.05
2022-10-12T02:33:17.799Z,2.50
2022-10-12T02:38:29.315Z,3.15
2022-10-12T02:43:37.795Z,2.85
2022-10-12T02:48:44.700Z,3.75
2022-10-12T02:53:48.943Z,3.55
2022-10-12T02:58:52.741Z,2.80
2022-10-12T03:03:57.780Z,2.88
2022-10-12T03:09:01.727Z,2.67
2022-10-12T03:14:06.121Z,3.30
2022-10-12T03:19:11.417Z,2.67
2022-10-12T03:24:15.029Z,3.03
2022-10-12T03:29:18.718Z,2.90
2022-10-12T03:34:23.831Z,2.90
2022-10-12T03:39:27.456Z,3.08
2022-10-12T03:44:31.080Z,2.63
2022-10-12T03:49:36.132Z,2.90
2022-10-12T03:54:39.724Z,3.13
2022-10-12T03:59:43.345Z,2.75
2022-10-12T04:04:48.399Z,3.17
2022-10-12T04:09:52.098Z,2.75
2022-10-12T04:14:55.769Z,3.17
2022-10-12T04:20:00.784Z,3.08
2022-10-12T04:25:05.039Z,3.22
2022-10-12T04:30:09.986Z,3.67
2022-10-12T04:35:15.032Z,3.20
2022-10-12T04:40:18.812Z,2.88
2022-10-12T04:45:22.523Z,3.15
2022-10-12T04:50:30.190Z,2.90
2022-10-12T04:55:34.111Z,2.97
2022-10-12T05:00:37.815Z,3.10
2022-10-12T05:05:45.238Z,2.78
2022-10-12T05:10:48.823Z,3.28
2022-10-12T05:15:52.458Z,3.22
2022-10-12T05:20:57.446Z,3.28
2022-10-12T05:26:01.138Z,3.67
2022-10-12T05:31:04.815Z,3.75
2022-10-12T05:36:10.674Z,4.03
2022-10-12T05:41:14.379Z,3.65
2022-10-12T05:46:18.021Z,3.63
2022-10-12T05:51:27.927Z,3.92
2022-10-12T05:56:32.632Z,4.25
2022-10-12T06:01:36.299Z,3.70
2022-10-12T06:06:41.512Z,3.60
2022-10-12T06:11:45.227Z,3.65
2022-10-12T06:16:52.328Z,3.38
2022-10-12T06:21:59.567Z,3.50
2022-10-12T06:27:03.217Z,3.90
2022-10-12T06:32:07.082Z,3.40
2022-10-12T06:37:25.382Z,3.55
2022-10-12T06:42:36.077Z,4.35
2022-10-12T06:47:42.213Z,3.63
2022-10-12T06:52:48.164Z,4.32
2022-10-12T06:57:52.047Z,4.50
2022-10-12T07:02:55.819Z,3.65
2022-10-12T07:08:01.194Z,4.47
2022-10-12T07:13:05.226Z,4.63
2022-10-12T07:18:08.970Z,4.50
2022-10-12T07:23:14.134Z,4.32
2022-10-12T07:28:18.226Z,4.78
2022-10-12T07:33:21.873Z,5.63
2022-10-12T07:38:27.222Z,4.93
2022-10-12T07:43:32.221Z,4.78
2022-10-12T07:48:36.399Z,4.70
2022-10-12T07:53:41.464Z,5.63
2022-10-12T07:58:49.943Z,6.45
2022-10-12T08:03:58.727Z,5.93
2022-10-12T08:09:06.566Z,6.10
2022-10-12T08:14:15.721Z,7.20
2022-10-12T08:19:19.782Z,6.10
2022-10-12T08:24:24.853Z,6.80
2022-10-12T08:29:28.532Z,8.15
2022-10-12T08:34:32.505Z,9.82
2022-10-12T08:39:37.539Z,11.13
2022-10-12T08:44:57.939Z,10.13
2022-10-12T08:50:03.980Z,8.85
2022-10-12T08:55:21.900Z,9.32
2022-10-12T09:00:25.703Z,8.02
2022-10-12T09:05:34.718Z,8.63
2022-10-12T09:10:48.443Z,7.88
2022-10-12T09:15:57.959Z,7.40
2022-10-12T09:21:06.280Z,6.32
2022-10-12T09:26:16.627Z,7.10
2022-10-12T09:31:33.112Z,6.28
2022-10-12T09:36:39.286Z,6.50
2022-10-12T09:41:46.397Z,5.83
2022-10-12T09:52:00.811Z,4.72
2022-10-12T09:57:05.918Z,5.18
2022-10-12T10:02:16.442Z,4.75
2022-10-12T10:07:27.305Z,4.78
2022-10-12T10:12:32.811Z,4.45
2022-10-12T10:17:36.616Z,4.40
2022-10-12T10:22:48.809Z,4.40
2022-10-12T10:28:12.135Z,3.75
2022-10-12T10:33:19.970Z,3.58
2022-10-12T10:38:23.662Z,4.75
2022-10-12T10:43:31.330Z,3.70
2022-10-12T10:48:51.369Z,3.97
2022-10-12T10:53:55.224Z,3.38
2022-10-12T10:59:09.053Z,4.00
2022-10-12T11:04:20.037Z,4.05
2022-10-12T11:09:29.971Z,4.38
2022-10-12T11:14:41.553Z,3.85
2022-10-12T11:19:52.953Z,3.28
2022-10-12T11:25:04.431Z,3.58
2022-10-12T11:30:15.794Z,3.92
2022-10-12T11:35:26.354Z,3.20
2022-10-12T11:41:02.582Z,3.55
2022-10-12T11:46:04.341Z,3.17
2022-10-12T11:51:08.601Z,2.88
2022-10-12T11:56:17.795Z,3.08
2022-10-12T12:01:44.147Z,2.17
2022-10-12T12:06:57.312Z,1.58
2022-10-12T12:12:23.321Z,2.25
2022-10-12T12:17:32.234Z,1.97
2022-10-12T12:22:54.756Z,2.00
2022-10-12T12:28:00.634Z,2.38
2022-10-12T12:33:25.451Z,2.28
2022-10-12T12:38:33.341Z,1.92
2022-10-12T12:43:56.306Z,1.75
2022-10-12T12:49:07.413Z,2.10
2022-10-12T12:54:19.590Z,1.95
2022-10-12T12:59:49.881Z,1.95
2022-10-12T13:05:19.603Z,2.03
2022-10-12T13:10:32.936Z,1.95
2022-10-12T13:15:58.331Z,2.30
2022-10-12T13:21:06.629Z,2.47
2022-10-12T13:26:11.932Z,2.13
2022-10-12T13:31:21.109Z,2.28
2022-10-12T13:36:29.728Z,2.20
2022-10-12T13:41:34.312Z,2.13
2022-10-12T13:46:42.554Z,2.00
2022-10-12T13:51:49.478Z,2.22
2022-10-12T13:56:57.515Z,2.70
2022-10-12T14:02:03.204Z,2.65
2022-10-12T14:07:19.114Z,2.53
2022-10-12T14:12:25.579Z,1.88
2022-10-12T14:17:32.128Z,2.22
2022-10-12T14:22:40.694Z,1.90
2022-10-12T14:27:45.318Z,1.58
2022-10-12T14:32:50.793Z,2.20
2022-10-12T14:37:57.743Z,1.88
2022-10-12T14:43:04.921Z,1.85
2022-10-12T14:48:17.126Z,1.92
2022-10-12T14:53:22.522Z,1.88
2022-10-12T14:58:26.186Z,2.40
2022-10-12T15:03:29.884Z,2.35
2022-10-12T15:08:35.006Z,2.35
2022-10-12T15:13:38.927Z,2.95
2022-10-12T15:18:42.631Z,2.38
2022-10-12T15:23:48.195Z,2.90
2022-10-12T15:28:51.887Z,2.53
2022-10-12T15:33:55.598Z,2.70
2022-10-12T15:39:00.674Z,2.75
2022-10-12T15:44:04.474Z,2.63
2022-10-12T15:49:08.347Z,2.70
2022-10-12T15:54:13.490Z,2.78
2022-10-12T15:59:17.107Z,2.33
2022-10-12T16:04:21.262Z,2.78
2022-10-12T16:09:28.287Z,2.78
2022-10-12T16:19:37.654Z,2.80
2022-10-12T16:24:42.700Z,2.90
2022-10-12T16:29:46.394Z,3.28
2022-10-12T16:34:50.187Z,3.05
2022-10-12T16:39:55.685Z,2.85
2022-10-12T16:44:59.375Z,2.97
2022-10-12T16:50:03.187Z,3.25
2022-10-12T16:55:09.468Z,2.97
2022-10-12T17:00:17.110Z,2.67
2022-10-12T17:05:21.705Z,4.03
2022-10-12T17:10:26.723Z,3.33
2022-10-12T17:15:30.392Z,3.03
2022-10-12T17:20:34.023Z,3.35
2022-10-12T17:25:39.151Z,4.15
2022-10-12T17:30:42.808Z,3.53
2022-10-12T17:35:46.610Z,3.80
2022-10-12T17:40:52.033Z,4.00
2022-10-12T17:45:55.654Z,3.70
2022-10-12T17:51:03.201Z,3.35
2022-10-12T17:56:12.696Z,3.75
2022-10-12T18:01:17.464Z,4.18
2022-10-12T18:06:21.919Z,3.97
2022-10-12T18:11:27.507Z,4.20
2022-10-12T18:16:32.930Z,4.57
2022-10-12T18:21:37.279Z,4.75
2022-10-12T18:26:43.490Z,4.20
2022-10-12T18:31:47.390Z,5.20
2022-10-12T18:36:52.694Z,5.43
2022-10-12T18:41:57.900Z,4.90
2022-10-12T18:47:01.634Z,6.35
2022-10-12T18:52:05.395Z,5.20
2022-10-12T18:57:10.546Z,5.40
2022-10-12T19:02:17.342Z,5.57
2022-10-12T19:07:21.308Z,4.93
2022-10-12T19:12:26.432Z,5.15
2022-10-12T19:17:32.100Z,5.30
2022-10-12T19:22:35.801Z,5.68
2022-10-12T19:27:41.043Z,5.43
2022-10-12T19:32:46.859Z,5.15
2022-10-12T19:37:50.486Z,5.10
2022-10-12T19:42:55.485Z,5.35
2022-10-12T19:48:01.724Z,5.72
2022-10-12T19:53:05.568Z,5.07
2022-10-12T19:58:10.683Z,4.47
2022-10-12T20:03:14.565Z,5.43
2022-10-12T20:08:19.854Z,5.57
2022-10-12T20:13:24.991Z,5.45
2022-10-12T20:18:31.801Z,5.30
2022-10-12T20:23:36.428Z,4.68
2022-10-12T20:28:44.849Z,5.57
2022-10-12T20:33:51.000Z,4.63
2022-10-12T20:38:55.375Z,4.18
2022-10-12T20:44:01.970Z,3.72
2022-10-12T20:49:05.952Z,4.03
2022-10-12T20:54:14.766Z,4.10
2022-10-12T20:59:20.167Z,3.67
2022-10-12T21:04:25.386Z,4.07
2022-10-12T21:09:29.415Z,3.78
2022-10-12T21:14:34.585Z,4.07
2022-10-12T21:19:38.311Z,4.38
2022-10-12T21:24:42.245Z,4.22
2022-10-12T21:29:47.310Z,4.25
2022-10-12T21:34:51.189Z,4.25
2022-10-12T21:39:54.920Z,4.68
2022-10-12T21:45:00.084Z,4.15
2022-10-12T21:50:08.102Z,4.80
2022-10-12T21:55:11.788Z,4.35
2022-10-12T22:00:17.485Z,5.07
2022-10-12T22:05:23.090Z,4.65
2022-10-12T22:10:29.766Z,4.75
2022-10-12T22:15:35.951Z,5.05
2022-10-12T22:20:48.240Z,4.85
2022-10-12T22:25:51.940Z,5.28
2022-10-12T22:30:57.121Z,4.93
2022-10-12T22:36:01.969Z,6.00
2022-10-12T22:41:07.917Z,5.05
2022-10-12T22:46:21.993Z,4.82
2022-10-12T22:51:32.164Z,5.32
2022-10-12T22:56:36.229Z,5.75
2022-10-12T23:01:41.363Z,5.95
2022-10-12T23:06:45.110Z,5.30
2022-10-12T23:11:51.266Z,6.15
2022-10-12T23:16:56.296Z,4.85
2022-10-12T23:22:00.952Z,5.40
2022-10-12T23:27:04.581Z,5.72
2022-10-12T23:32:09.744Z,6.00
2022-10-12T23:37:13.652Z,5.55
2022-10-12T23:42:17.823Z,4.85
2022-10-12T23:47:23.078Z,5.63
2022-10-12T23:52:26.790Z,5.80
2022-10-12T23:57:46.297Z,5.65
